createdAt,value
2019-04-06T00:00:42.455Z,97425.55
2019-04-06T00:03:14.540Z,97419.13
2019-04-06T00:05:46.621Z,97425.80
2019-04-06T00:08:18.619Z,97428.94
2019-04-06T00:10:50.588Z,97431.03
2019-04-06T00:13:22.649Z,97424.97
2019-04-06T00:15:54.694Z,97415.50
2019-04-06T00:18:26.786Z,97416.54
2019-04-06T00:20:58.762Z,97420.96
2019-04-06T00:23:31.149Z,97420.48
2019-04-06T00:26:03.206Z,97420.93
2019-04-06T00:28:35.283Z,97417.60
2019-04-06T00:31:26.745Z,97411.63
2019-04-06T00:33:59.027Z,97418.05
2019-04-06T00:36:31.371Z,97412.47
2019-04-06T00:39:05.087Z,97412.63
2019-04-06T00:41:38.905Z,97408.45
2019-04-06T00:44:11.282Z,97410.81
2019-04-06T00:46:45.150Z,97415.42
2019-04-06T00:49:17.198Z,97420.42
2019-04-06T00:51:49.210Z,97411.34
2019-04-06T00:54:21.193Z,97412.83
2019-04-06T00:56:53.186Z,97413.86
2019-04-06T00:59:25.158Z,97410.52
2019-04-06T01:01:57.171Z,97410.23
2019-04-06T01:04:29.145Z,97413.33
2019-04-06T01:07:01.118Z,97413.72
2019-04-06T01:09:33.105Z,97411.64
2019-04-06T01:12:05.055Z,97406.80
2019-04-06T01:14:37.082Z,97410.87
2019-04-06T01:17:09.991Z,97414.44
2019-04-06T01:19:41.941Z,97414.05
2019-04-06T01:22:14.024Z,97412.50
2019-04-06T01:24:45.973Z,97409.79
2019-04-06T01:27:18.147Z,97411.02
2019-04-06T01:29:50.425Z,97416.70
2019-04-06T01:32:22.666Z,97407.92
2019-04-06T01:34:54.629Z,97411.35
2019-04-06T01:37:26.624Z,97407.28
2019-04-06T01:39:58.615Z,97410.48
2019-04-06T01:42:30.607Z,97409.16
2019-04-06T01:45:02.565Z,97402.09
2019-04-06T01:47:34.764Z,97398.67
2019-04-06T01:50:07.501Z,97401.77
2019-04-06T01:52:39.448Z,97395.30
2019-04-06T01:55:11.626Z,97394.41
2019-04-06T01:57:43.621Z,97392.81
2019-04-06T02:00:16.107Z,97395.84
2019-04-06T02:02:50.536Z,97391.59
2019-04-06T02:05:22.498Z,97393.39
2019-04-06T02:07:54.590Z,97395.26
2019-04-06T02:10:26.641Z,97394.33
2019-04-06T02:12:58.654Z,97393.94
2019-04-06T02:15:31.029Z,97396.19
2019-04-06T02:18:03.115Z,97386.55
2019-04-06T02:20:35.471Z,97392.02
2019-04-06T02:23:07.806Z,97397.31
2019-04-06T02:25:40.346Z,97396.92
2019-04-06T02:28:12.390Z,97402.59
2019-04-06T02:30:55.025Z,97396.44
2019-04-06T02:33:39.385Z,97397.46
2019-04-06T02:36:45.837Z,97398.39
2019-04-06T02:39:42.769Z,97396.33
2019-04-06T02:42:21.221Z,97398.19
2019-04-06T02:44:53.331Z,97400.63
2019-04-06T02:47:25.427Z,97390.98
2019-04-06T02:49:57.537Z,97388.97
2019-04-06T02:52:29.752Z,97388.13
2019-04-06T02:55:01.853Z,97384.80
2019-04-06T02:57:33.832Z,97381.88
2019-04-06T03:00:07.848Z,97382.06
2019-04-06T03:02:40.422Z,97376.00
2019-04-06T03:05:12.578Z,97384.32
2019-04-06T03:07:44.627Z,97384.32
2019-04-06T03:10:16.625Z,97376.00
2019-04-06T03:12:48.732Z,97387.89
2019-04-06T03:15:20.908Z,97387.20
2019-04-06T03:17:52.953Z,97386.06
2019-04-06T03:20:25.050Z,97384.36
2019-04-06T03:22:57.001Z,97385.20
2019-04-06T03:25:29.175Z,97388.47
2019-04-06T03:28:01.342Z,97393.45
2019-04-06T03:30:33.315Z,97394.95
2019-04-06T03:33:05.282Z,97403.81
2019-04-06T03:35:37.746Z,97399.85
2019-04-06T03:38:10.515Z,97417.56
2019-04-06T03:40:42.581Z,97416.03
2019-04-06T03:43:14.617Z,97415.25
2019-04-06T03:45:46.592Z,97425.07
2019-04-06T03:48:18.574Z,97416.27
2019-04-06T03:50:50.665Z,97422.13
2019-04-06T03:53:22.801Z,97424.83
2019-04-06T03:55:54.910Z,97424.29
2019-04-06T03:58:26.979Z,97419.39
2019-04-06T04:00:58.986Z,97422.25
2019-04-06T04:03:31.083Z,97412.61
2019-04-06T04:06:03.210Z,97415.11
2019-04-06T04:08:35.199Z,97417.27
2019-04-06T04:11:07.143Z,97410.75
2019-04-06T04:13:39.135Z,97414.02
2019-04-06T04:16:11.245Z,97416.36
2019-04-06T04:18:43.233Z,97412.94
2019-04-06T04:21:15.175Z,97412.94
2019-04-06T04:23:47.215Z,97419.54
2019-04-06T04:26:19.194Z,97411.61
2019-04-06T04:28:51.260Z,97419.30
2019-04-06T04:31:23.223Z,97420.62
2019-04-06T04:33:55.312Z,97416.18
2019-04-06T04:36:27.295Z,97420.62
2019-04-06T04:38:59.300Z,97420.93
2019-04-06T04:41:31.319Z,97426.06
2019-04-06T04:44:03.369Z,97431.71
2019-04-06T04:46:35.319Z,97437.33
2019-04-06T04:49:07.283Z,97437.78
2019-04-06T04:51:39.294Z,97435.53
2019-04-06T04:54:12.246Z,97438.02
2019-04-06T04:56:44.188Z,97432.65
2019-04-06T04:59:16.167Z,97435.20
2019-04-06T05:01:48.218Z,97439.77
2019-04-06T05:04:20.609Z,97437.38
2019-04-06T05:06:52.871Z,97441.25
2019-04-06T05:09:24.956Z,97429.05
2019-04-06T05:11:56.965Z,97434.34
2019-04-06T05:15:00.827Z,97443.98
2019-04-06T05:17:32.801Z,97450.02
2019-04-06T05:20:05.622Z,97450.02
2019-04-06T05:22:37.753Z,97460.75
2019-04-06T05:25:10.105Z,97447.44
2019-04-06T05:27:51.268Z,97453.89
2019-04-06T05:30:16.461Z,97451.85
2019-04-06T05:32:48.494Z,97456.57
2019-04-06T05:35:20.755Z,97465.58
2019-04-06T05:37:52.832Z,97469.79
2019-04-06T05:40:24.972Z,97468.85
2019-04-06T05:42:57.004Z,97470.47
2019-04-06T05:45:29.197Z,97462.20
2019-04-06T05:48:01.434Z,97461.28
2019-04-06T05:50:33.405Z,97483.41
2019-04-06T05:53:05.708Z,97483.13
2019-04-06T05:55:37.654Z,97479.41
2019-04-06T05:58:10.848Z,97489.14
2019-04-06T06:00:43.411Z,97466.72
2019-04-06T06:03:15.590Z,97470.92
2019-04-06T06:05:47.661Z,97481.07
2019-04-06T06:08:20.306Z,97486.27
2019-04-06T06:10:52.487Z,97492.02
2019-04-06T06:13:24.483Z,97491.70
2019-04-06T06:15:56.513Z,97492.02
2019-04-06T06:18:28.546Z,97477.50
2019-04-06T06:21:01.062Z,97487.05
2019-04-06T06:23:33.193Z,97492.78
2019-04-06T06:26:05.438Z,97480.77
2019-04-06T06:28:37.667Z,97485.13
2019-04-06T06:31:10.473Z,97479.73
2019-04-06T06:33:42.439Z,97477.92
2019-04-06T06:36:14.533Z,97459.19
2019-04-06T06:38:46.625Z,97467.04
2019-04-06T06:41:18.734Z,97452.25
2019-04-06T06:43:50.761Z,97468.03
2019-04-06T06:46:22.865Z,97458.59
2019-04-06T06:48:54.943Z,97439.87
2019-04-06T06:51:27.031Z,97434.72
2019-04-06T06:54:00.817Z,97430.64
2019-04-06T06:56:32.858Z,97414.14
2019-04-06T06:59:04.953Z,97403.59
2019-04-06T07:01:37.036Z,97401.69
2019-04-06T07:04:09.311Z,97420.26
2019-04-06T07:06:43.916Z,97426.03
2019-04-06T07:09:15.947Z,97421.42
2019-04-06T07:11:48.543Z,97418.52
2019-04-06T07:14:20.512Z,97428.01
2019-04-06T07:16:52.580Z,97443.25
2019-04-06T07:19:24.537Z,97452.78
2019-04-06T07:21:56.557Z,97442.08
2019-04-06T07:24:28.511Z,97448.22
2019-04-06T07:27:00.550Z,97434.45
2019-04-06T07:29:32.556Z,97448.88
2019-04-06T07:32:04.536Z,97458.59
2019-04-06T07:34:36.546Z,97456.83
2019-04-06T07:37:08.799Z,97461.43
2019-04-06T07:39:41.196Z,97461.39
2019-04-06T07:42:13.179Z,97448.90
2019-04-06T07:44:45.213Z,97459.25
2019-04-06T07:47:17.227Z,97458.34
2019-04-06T07:49:49.167Z,97449.08
2019-04-06T07:52:21.338Z,97456.78
2019-04-06T07:54:53.354Z,97460.03
2019-04-06T07:57:25.445Z,97455.91
2019-04-06T07:59:57.451Z,97456.61
2019-04-06T08:02:29.499Z,97469.08
2019-04-06T08:05:01.519Z,97475.25
2019-04-06T08:07:33.470Z,97485.26
2019-04-06T08:10:06.064Z,97486.59
2019-04-06T08:12:38.089Z,97485.87
2019-04-06T08:15:11.052Z,97482.07
2019-04-06T08:17:44.090Z,97495.84
2019-04-06T08:20:17.595Z,97502.02
2019-04-06T08:22:49.909Z,97499.55
2019-04-06T08:25:21.918Z,97503.36
2019-04-06T08:27:54.063Z,97501.25
2019-04-06T08:30:26.276Z,97493.75
2019-04-06T08:32:58.715Z,97497.62
2019-04-06T08:35:31.089Z,97495.57
2019-04-06T08:38:03.179Z,97498.94
2019-04-06T08:40:35.416Z,97500.03
2019-04-06T08:43:07.516Z,97494.83
2019-04-06T08:45:39.554Z,97504.94
2019-04-06T08:48:12.518Z,97497.23
2019-04-06T08:50:44.771Z,97509.17
2019-04-06T08:53:16.854Z,97503.58
2019-04-06T08:55:48.942Z,97507.73
2019-04-06T08:58:21.503Z,97494.71
2019-04-06T09:00:53.705Z,97485.43
2019-04-06T09:03:25.894Z,97506.84
2019-04-06T09:05:57.945Z,97507.94
2019-04-06T09:08:30.530Z,97500.36
2019-04-06T09:11:02.656Z,97505.08
2019-04-06T09:13:34.665Z,97503.73
2019-04-06T09:16:06.770Z,97499.81
2019-04-06T09:18:38.762Z,97495.90
2019-04-06T09:21:11.165Z,97495.02
2019-04-06T09:23:43.255Z,97491.58
2019-04-06T09:26:15.297Z,97488.20
2019-04-06T09:28:47.399Z,97486.02
2019-04-06T09:31:19.481Z,97476.65
2019-04-06T09:33:51.457Z,97477.98
2019-04-06T09:36:23.592Z,97471.52
2019-04-06T09:38:56.313Z,97465.03
2019-04-06T09:41:29.916Z,97448.94
2019-04-06T09:44:02.006Z,97458.28
2019-04-06T09:46:41.865Z,97463.56
2019-04-06T09:49:32.686Z,97455.53
2019-04-06T09:52:22.401Z,97457.44
2019-04-06T09:55:13.235Z,97468.21
2019-04-06T09:57:58.615Z,97471.79
2019-04-06T10:00:43.306Z,97480.41
2019-04-06T10:03:34.399Z,97466.36
2019-04-06T10:06:16.792Z,97467.78
2019-04-06T10:09:26.162Z,97463.03
2019-04-06T10:12:17.829Z,97466.09
2019-04-06T10:15:03.565Z,97460.28
2019-04-06T10:17:54.763Z,97457.91
2019-04-06T10:20:53.427Z,97455.85
2019-04-06T10:24:02.445Z,97450.59
2019-04-06T10:26:56.253Z,97445.39
2019-04-06T10:29:58.765Z,97444.16
2019-04-06T10:32:37.159Z,97444.82
2019-04-06T10:35:21.034Z,97446.89
2019-04-06T10:38:14.075Z,97454.75
2019-04-06T10:41:08.133Z,97457.65
2019-04-06T10:44:08.650Z,97459.30
2019-04-06T10:46:58.635Z,97452.73
2019-04-06T10:50:07.608Z,97459.61
2019-04-06T10:53:02.192Z,97454.06
2019-04-06T10:55:57.595Z,97461.41
2019-04-06T10:58:54.923Z,97459.44
2019-04-06T11:01:49.058Z,97465.40
2019-04-06T11:04:34.970Z,97462.11
2019-04-06T11:07:24.617Z,97465.77
2019-04-06T11:10:24.387Z,97463.75
2019-04-06T11:13:13.726Z,97467.53
2019-04-06T11:15:53.586Z,97459.66
2019-04-06T11:18:42.980Z,97458.77
2019-04-06T11:21:33.814Z,97469.42
2019-04-06T11:24:23.489Z,97477.41
2019-04-06T11:27:11.896Z,97471.65
2019-04-06T11:30:13.112Z,97462.14
2019-04-06T11:33:07.174Z,97462.03
2019-04-06T11:35:54.098Z,97465.77
2019-04-06T11:38:45.081Z,97464.06
2019-04-06T11:41:28.153Z,97472.19
2019-04-06T11:44:07.793Z,97470.60
2019-04-06T11:46:57.444Z,97468.00
2019-04-06T11:49:44.349Z,97472.01
2019-04-06T11:52:34.034Z,97469.59
2019-04-06T11:55:18.901Z,97471.59
2019-04-06T11:58:10.325Z,97474.31
2019-04-06T12:01:03.929Z,97473.11
2019-04-06T12:03:54.757Z,97483.88
2019-04-06T12:06:37.191Z,97483.44
2019-04-06T12:09:28.243Z,97482.44
2019-04-06T12:12:18.555Z,97481.75
2019-04-06T12:15:04.930Z,97479.09
2019-04-06T12:17:45.548Z,97474.45
2019-04-06T12:20:34.596Z,97475.78
2019-04-06T12:23:24.079Z,97475.41
2019-04-06T12:26:09.445Z,97480.08
2019-04-06T12:28:50.402Z,97485.20
2019-04-06T12:31:44.692Z,97500.03
2019-04-06T12:34:27.374Z,97504.59
2019-04-06T12:37:24.771Z,97507.81
2019-04-06T12:40:15.323Z,97510.33
2019-04-06T12:43:18.149Z,97521.38
2019-04-06T12:46:12.478Z,97525.84
2019-04-06T12:49:03.389Z,97536.72
2019-04-06T12:51:57.317Z,97541.64
2019-04-06T12:54:57.845Z,97539.56
2019-04-06T12:57:49.573Z,97547.23
2019-04-06T13:00:49.303Z,97553.37
2019-04-06T13:03:31.343Z,97551.73
2019-04-06T13:06:37.849Z,97557.57
2019-04-06T13:09:44.504Z,97544.72
2019-04-06T13:12:44.537Z,97541.43
2019-04-06T13:15:38.689Z,97537.16
2019-04-06T13:18:27.058Z,97532.31
2019-04-06T13:21:25.265Z,97524.17
2019-04-06T13:24:08.031Z,97519.60
2019-04-06T13:26:56.755Z,97523.63
2019-04-06T13:29:42.302Z,97520.84
2019-04-06T13:32:36.521Z,97525.09
2019-04-06T13:35:14.051Z,97526.63
2019-04-06T13:37:59.743Z,97529.05
2019-04-06T13:40:50.531Z,97532.08
2019-04-06T13:43:41.510Z,97528.45
2019-04-06T13:46:28.594Z,97529.88
2019-04-06T13:49:26.541Z,97528.77
2019-04-06T13:52:17.382Z,97532.77
2019-04-06T13:55:08.503Z,97538.96
2019-04-06T13:58:02.903Z,97552.11
2019-04-06T14:01:13.771Z,97558.28
2019-04-06T14:03:54.138Z,97549.39
2019-04-06T14:06:51.364Z,97553.20
2019-04-06T14:09:48.292Z,97552.64
2019-04-06T14:12:38.361Z,97550.44
2019-04-06T14:15:47.947Z,97551.03
2019-04-06T14:18:41.919Z,97539.16
2019-04-06T14:21:31.402Z,97547.34
2019-04-06T14:24:28.491Z,97556.94
2019-04-06T14:27:20.010Z,97552.51
2019-04-06T14:30:22.797Z,97549.49
2019-04-06T14:33:12.228Z,97550.98
2019-04-06T14:36:04.489Z,97548.16
2019-04-06T14:38:57.958Z,97541.15
2019-04-06T14:41:47.742Z,97541.88
2019-04-06T14:44:31.842Z,97547.02
2019-04-06T14:47:31.923Z,97544.47
2019-04-06T14:50:24.226Z,97541.61
2019-04-06T14:53:18.234Z,97538.84
2019-04-06T14:56:21.493Z,97536.56
2019-04-06T14:59:24.707Z,97535.90
2019-04-06T15:02:14.176Z,97527.89
2019-04-06T15:05:14.430Z,97523.98
2019-04-06T15:08:05.629Z,97520.52
2019-04-06T15:11:05.379Z,97512.72
2019-04-06T15:13:56.318Z,97515.30
2019-04-06T15:16:47.559Z,97509.31
2019-04-06T15:19:41.759Z,97509.31
2019-04-06T15:22:31.526Z,97510.53
2019-04-06T15:25:12.553Z,97511.34
2019-04-06T15:28:03.377Z,97512.45
2019-04-06T15:30:42.518Z,97511.51
2019-04-06T15:33:26.904Z,97508.13
2019-04-06T15:36:24.396Z,97506.54
2019-04-06T15:39:15.281Z,97493.32
2019-04-06T15:42:15.153Z,97495.45
2019-04-06T15:45:12.315Z,97486.64
2019-04-06T15:48:15.525Z,97477.92
2019-04-06T15:51:09.569Z,97473.30
2019-04-06T15:54:06.548Z,97481.85
2019-04-06T15:56:46.303Z,97484.48
2019-04-06T15:59:24.631Z,97483.44
2019-04-06T16:02:33.981Z,97491.66
2019-04-06T16:05:16.883Z,97485.87
2019-04-06T16:07:59.549Z,97491.16
2019-04-06T16:10:50.359Z,97491.08
2019-04-06T16:13:56.900Z,97483.31
2019-04-06T16:16:50.818Z,97482.66
2019-04-06T16:19:50.857Z,97481.36
2019-04-06T16:22:38.376Z,97491.05
2019-04-06T16:25:36.225Z,97482.91
2019-04-06T16:28:45.481Z,97493.27
2019-04-06T16:31:36.509Z,97490.45
2019-04-06T16:34:30.048Z,97488.80
2019-04-06T16:37:18.527Z,97484.27
2019-04-06T16:40:03.219Z,97491.20
2019-04-06T16:42:56.881Z,97491.06
2019-04-06T16:45:54.981Z,97494.59
2019-04-06T16:48:42.510Z,97489.28
2019-04-06T16:51:31.805Z,97496.23
2019-04-06T16:54:23.253Z,97498.86
2019-04-06T16:57:12.935Z,97497.41
2019-04-06T16:59:54.249Z,97493.34
2019-04-06T17:02:44.777Z,97494.37
2019-04-06T17:05:36.172Z,97484.55
2019-04-06T17:08:27.107Z,97484.97
2019-04-06T17:11:26.947Z,97491.14
2019-04-06T17:14:11.538Z,97493.01
2019-04-06T17:17:05.167Z,97492.45
2019-04-06T17:19:56.243Z,97489.81
2019-04-06T17:22:37.176Z,97494.91
2019-04-06T17:25:28.229Z,97499.25
2019-04-06T17:28:14.672Z,97494.72
2019-04-06T17:31:11.807Z,97495.77
2019-04-06T17:33:51.808Z,97492.11
2019-04-06T17:36:42.871Z,97490.40
2019-04-06T17:39:37.026Z,97489.25
2019-04-06T17:42:18.923Z,97495.13
2019-04-06T17:45:08.877Z,97489.73
2019-04-06T17:47:58.952Z,97498.79
2019-04-06T17:50:42.593Z,97490.95
2019-04-06T17:53:41.158Z,97494.61
2019-04-06T17:56:31.975Z,97497.89
2019-04-06T17:59:21.547Z,97503.53
2019-04-06T18:02:21.444Z,97504.80
2019-04-06T18:05:15.244Z,97504.41
2019-04-06T18:08:09.096Z,97507.89
2019-04-06T18:10:57.171Z,97511.02
2019-04-06T18:13:49.825Z,97505.82
2019-04-06T18:16:25.448Z,97505.97
2019-04-06T18:18:57.740Z,97509.84
2019-04-06T18:21:30.270Z,97504.73
2019-04-06T18:24:02.285Z,97498.52
2019-04-06T18:26:34.310Z,97503.02
2019-04-06T18:29:06.467Z,97503.95
2019-04-06T18:31:57.525Z,97509.72
2019-04-06T18:34:29.596Z,97503.41
2019-04-06T18:37:20.522Z,97497.64
2019-04-06T18:39:53.754Z,97494.07
2019-04-06T18:42:26.106Z,97495.60
2019-04-06T18:44:58.119Z,97489.86
2019-04-06T18:47:30.476Z,97487.67
2019-04-06T18:50:02.711Z,97494.61
2019-04-06T18:52:35.022Z,97487.76
2019-04-06T18:55:07.850Z,97491.33
2019-04-06T18:57:40.277Z,97493.67
2019-04-06T19:00:13.422Z,97496.41
2019-04-06T19:02:46.169Z,97496.41
2019-04-06T19:05:18.638Z,97498.12
2019-04-06T19:07:50.906Z,97500.37
2019-04-06T19:10:23.232Z,97501.84
2019-04-06T19:12:55.398Z,97494.58
2019-04-06T19:15:27.536Z,97498.77
2019-04-06T19:18:00.156Z,97498.53
2019-04-06T19:20:32.338Z,97497.92
2019-04-06T19:23:04.753Z,97488.06
2019-04-06T19:25:37.889Z,97493.44
2019-04-06T19:28:10.941Z,97492.73
2019-04-06T19:30:44.427Z,97494.08
2019-04-06T19:33:23.338Z,97490.11
2019-04-06T19:35:50.675Z,97487.53
2019-04-06T19:38:22.732Z,97479.91
2019-04-06T19:40:55.209Z,97482.56
2019-04-06T19:43:27.768Z,97481.72
2019-04-06T19:46:00.021Z,97475.09
2019-04-06T19:48:33.872Z,97478.05
2019-04-06T19:51:06.186Z,97479.59
2019-04-06T19:53:39.063Z,97476.91
2019-04-06T19:56:11.225Z,97476.34
2019-04-06T19:58:43.811Z,97481.58
2019-04-06T20:01:15.989Z,97475.20
2019-04-06T20:03:48.215Z,97479.77
2019-04-06T20:06:20.562Z,97469.42
2019-04-06T20:08:52.854Z,97472.13
2019-04-06T20:11:25.555Z,97465.06
2019-04-06T20:13:57.643Z,97461.28
2019-04-06T20:16:29.613Z,97456.14
2019-04-06T20:19:01.644Z,97457.80
2019-04-06T20:21:34.112Z,97456.92
2019-04-06T20:24:06.846Z,97449.92
2019-04-06T20:26:39.886Z,97449.39
2019-04-06T20:29:12.683Z,97447.83
2019-04-06T20:31:44.897Z,97459.46
2019-04-06T20:34:16.865Z,97451.38
2019-04-06T20:36:49.065Z,97454.12
2019-04-06T20:39:21.102Z,97452.49
2019-04-06T20:41:53.206Z,97453.03
2019-04-06T20:44:25.178Z,97460.19
2019-04-06T20:46:57.161Z,97456.95
2019-04-06T20:49:29.116Z,97455.55
2019-04-06T20:52:01.167Z,97462.24
2019-04-06T20:54:33.239Z,97455.95
2019-04-06T20:57:05.402Z,97459.43
2019-04-06T20:59:37.516Z,97456.63
2019-04-06T21:02:09.450Z,97455.38
2019-04-06T21:04:41.422Z,97453.45
2019-04-06T21:07:13.413Z,97452.30
2019-04-06T21:09:45.399Z,97445.92
2019-04-06T21:12:18.184Z,97440.55
2019-04-06T21:14:52.814Z,97433.42
2019-04-06T21:17:24.119Z,97434.52
2019-04-06T21:19:56.134Z,97439.63
2019-04-06T21:22:28.083Z,97435.97
2019-04-06T21:25:00.572Z,97442.34
2019-04-06T21:27:32.638Z,97433.02
2019-04-06T21:30:05.452Z,97429.36
2019-04-06T21:32:37.420Z,97427.42
2019-04-06T21:35:09.497Z,97424.86
2019-04-06T21:37:41.596Z,97418.41
2019-04-06T21:40:15.902Z,97423.68
2019-04-06T21:42:48.445Z,97423.80
2019-04-06T21:45:20.730Z,97414.41
2019-04-06T21:47:53.073Z,97409.25
2019-04-06T21:50:25.640Z,97406.16
2019-04-06T21:52:57.709Z,97410.81
2019-04-06T21:55:30.058Z,97408.29
2019-04-06T21:58:03.241Z,97407.75
2019-04-06T22:00:52.419Z,97409.34
2019-04-06T22:03:24.453Z,97414.50
2019-04-06T22:05:56.757Z,97409.30
2019-04-06T22:08:29.479Z,97410.80
2019-04-06T22:11:01.822Z,97413.05
2019-04-06T22:13:33.884Z,97418.00
2019-04-06T22:16:06.287Z,97416.27
2019-04-06T22:18:38.372Z,97406.66
2019-04-06T22:21:10.618Z,97406.22
2019-04-06T22:23:44.946Z,97411.43
2019-04-06T22:26:17.074Z,97402.03
2019-04-06T22:28:49.232Z,97402.58
2019-04-06T22:31:21.363Z,97407.72
2019-04-06T22:33:55.626Z,97405.70
2019-04-06T22:36:27.716Z,97403.91
2019-04-06T22:39:00.629Z,97407.55
2019-04-06T22:41:32.773Z,97407.78
2019-04-06T22:44:05.647Z,97410.90
2019-04-06T22:46:38.087Z,97410.02
2019-04-06T22:49:10.343Z,97413.36
2019-04-06T22:51:43.497Z,97410.00
2019-04-06T22:54:15.507Z,97415.08
2019-04-06T22:56:47.447Z,97415.64
2019-04-06T22:59:19.509Z,97415.82
2019-04-06T23:01:51.708Z,97403.88
2019-04-06T23:04:47.710Z,97395.05
2019-04-06T23:07:16.782Z,97392.80
2019-04-06T23:09:49.368Z,97391.17
2019-04-06T23:12:21.337Z,97393.70
2019-04-06T23:14:53.792Z,97387.91
2019-04-06T23:17:26.098Z,97384.88
2019-04-06T23:19:58.163Z,97386.80
2019-04-06T23:22:30.392Z,97384.33
2019-04-06T23:25:02.762Z,97381.21
2019-04-06T23:27:35.354Z,97374.62
2019-04-06T23:30:08.820Z,97375.09
2019-04-06T23:32:41.154Z,97376.42
2019-04-06T23:35:13.298Z,97381.61
2019-04-06T23:37:45.839Z,97376.28
2019-04-06T23:40:17.917Z,97377.93
2019-04-06T23:42:50.479Z,97379.56
2019-04-06T23:45:23.427Z,97378.87
2019-04-06T23:47:55.900Z,97379.59
2019-04-06T23:50:28.201Z,97385.27
2019-04-06T23:53:00.722Z,97385.88
2019-04-06T23:55:35.496Z,97386.98
2019-04-06T23:58:07.538Z,97385.66
